Time;durP1;ratioP1;P1;durP2;ratioP2;P2;SDS_P1;SDS_P2;PMS_P1;PMS_P2;Temp;Humidity;BMP_temperature;BMP_pressure;BME280_temperature;BME280_humidity;BME280_pressure;Samples;Min_cycle;Max_cycle;Signal;HPM_P1;HPM_P2
2022/10/16 00:02:16;;;;;;;6.50;4.28;;;;;;;13.30;79.20;99961.09;10382852;28;20053;-77
2022/10/16 00:07:20;;;;;;;5.28;3.80;;;;;;;13.34;79.09;99957.97;10373637;28;20049;-77
2022/10/16 00:12:23;;;;;;;9.63;4.30;;;;;;;13.10;80.25;99976.56;10377865;28;21527;-77
2022/10/16 00:17:26;;;;;;;4.78;3.83;;;;;;;13.15;79.74;99972.41;10387151;28;20049;-77
2022/10/16 00:22:31;;;;;;;4.63;3.83;;;;;;;13.22;79.50;99973.53;10380080;28;20068;-77
2022/10/16 00:27:34;;;;;;;7.30;3.63;;;;;;;13.39;78.69;99971.03;10393774;28;20057;-77
2022/10/16 00:32:37;;;;;;;6.45;3.63;;;;;;;13.35;78.89;99977.69;10377820;28;21784;-77
2022/10/16 00:37:41;;;;;;;7.75;3.80;;;;;;;13.32;78.66;99967.22;10393159;28;20049;-77
2022/10/16 00:42:44;;;;;;;13.30;4.28;;;;;;;13.32;78.52;99973.44;10385304;28;20135;-77
2022/10/16 00:47:51;;;;;;;5.93;3.80;;;;;;;13.31;78.60;99962.81;10386185;28;20184;-78
2022/10/16 00:52:56;;;;;;;8.15;3.50;;;;;;;13.27;78.46;99963.13;10373494;28;20553;-77
2022/10/16 00:58:00;;;;;;;5.28;3.58;;;;;;;13.25;78.64;99973.22;10399759;28;20162;-77
2022/10/16 01:03:03;;;;;;;4.63;3.35;;;;;;;13.26;78.76;99982.16;10373244;28;20056;-77
2022/10/16 01:08:14;;;;;;;6.85;3.78;;;;;;;13.20;79.35;99972.81;10370957;28;20649;-77
2022/10/16 01:13:22;;;;;;;4.75;3.08;;;;;;;13.21;79.16;99977.19;10373144;28;20187;-77
2022/10/16 01:18:32;;;;;;;8.82;4.10;;;;;;;13.16;79.29;99992.13;10371635;28;20140;-78
2022/10/16 01:23:50;;;;;;;5.80;3.53;;;;;;;13.21;79.31;99992.53;10373221;28;20211;-77
2022/10/16 01:28:58;;;;;;;7.45;3.97;;;;;;;13.14;79.73;99996.84;10381632;28;20131;-77
2022/10/16 01:34:05;;;;;;;6.80;4.18;;;;;;;13.18;79.35;99990.16;10415426;28;20103;-77
2022/10/16 01:39:11;;;;;;;7.00;4.53;;;;;;;13.21;79.21;99993.38;10406993;28;20068;-77
2022/10/16 01:44:20;;;;;;;6.30;3.47;;;;;;;13.12;79.57;99997.00;10411512;28;20044;-78
2022/10/16 01:49:27;;;;;;;5.97;3.55;;;;;;;13.10;79.74;100006.22;10399677;28;20127;-76
2022/10/16 01:54:33;;;;;;;7.43;3.95;;;;;;;13.04;79.88;100005.81;10407385;28;20095;-76
2022/10/16 01:59:44;;;;;;;5.57;3.88;;;;;;;12.92;80.41;100012.41;10398847;28;20501;-76
2022/10/16 02:04:50;;;;;;;6.35;4.75;;;;;;;12.95;79.98;100005.88;10395767;28;20057;-76
2022/10/16 02:09:53;;;;;;;7.10;4.45;;;;;;;12.98;79.82;100001.03;10390281;28;20509;-76
2022/10/16 02:14:57;;;;;;;8.32;3.90;;;;;;;12.79;80.47;100009.22;10412146;28;20075;-77
2022/10/16 02:20:01;;;;;;;8.02;4.03;;;;;;;12.94;79.79;99990.69;10397046;28;20049;-78
2022/10/16 02:25:09;;;;;;;6.28;4.20;;;;;;;12.78;80.01;99991.31;10402152;28;20510;-77
2022/10/16 02:30:20;;;;;;;5.97;4.20;;;;;;;12.58;81.73;99999.47;10383898;28;20137;-78
2022/10/16 02:35:24;;;;;;;6.78;4.30;;;;;;;12.57;81.21;99984.31;10394585;28;20057;-79
2022/10/16 02:40:28;;;;;;;5.75;4.95;;;;;;;12.48;82.05;99993.28;10404847;28;20449;-79
2022/10/16 02:45:33;;;;;;;7.28;4.40;;;;;;;12.50;81.76;99991.28;10388991;28;20041;-78
2022/10/16 02:50:35;;;;;;;9.57;4.85;;;;;;;12.32;82.87;99991.19;10391138;28;20076;-77
2022/10/16 02:55:38;;;;;;;9.30;4.30;;;;;;;12.37;82.11;100012.31;10391807;28;20045;-78
2022/10/16 03:00:42;;;;;;;9.50;5.88;;;;;;;12.54;81.53;100005.34;10403344;28;20059;-78
2022/10/16 03:05:46;;;;;;;5.95;4.07;;;;;;;12.56;81.22;100006.88;10407170;28;20109;-78
2022/10/16 03:10:49;;;;;;;8.93;4.32;;;;;;;12.52;81.46;100012.69;10411330;28;20080;-78
2022/10/16 03:15:53;;;;;;;;;;;;;;;12.57;81.22;100030.13;10403506;28;20050;-78
2022/10/16 03:20:55;;;;;;;8.32;4.68;;;;;;;12.49;81.60;100019.22;10410258;28;19931;-78
2022/10/16 03:25:58;;;;;;;9.63;4.57;;;;;;;12.58;81.05;100029.13;10419126;28;20075;-78
2022/10/16 03:31:03;;;;;;;8.25;4.15;;;;;;;12.51;80.89;100030.72;10401345;28;20053;-78
2022/10/16 03:36:06;;;;;;;6.55;4.80;;;;;;;12.60;80.28;100008.28;10416205;28;20049;-78
2022/10/16 03:41:08;;;;;;;11.23;4.78;;;;;;;12.50;80.96;100017.38;10388111;28;20053;-78
2022/10/16 03:46:13;;;;;;;4.78;3.80;;;;;;;12.54;80.36;100016.94;10374303;28;20053;-78
2022/10/16 03:51:15;;;;;;;6.63;3.58;;;;;;;12.36;81.31;100026.75;10402803;28;20053;-78
2022/10/16 03:56:18;;;;;;;;;;;;;;;12.31;81.44;100026.34;10421978;28;20049;-78
2022/10/16 04:01:22;;;;;;;4.93;3.55;;;;;;;12.50;80.40;100036.22;10410101;28;19925;-78
2022/10/16 04:06:25;;;;;;;4.75;4.22;;;;;;;12.58;80.18;100026.41;10419498;28;20057;-78
2022/10/16 04:11:28;;;;;;;;;;;;;;;12.65;79.42;100029.41;10416571;28;20068;-78
2022/10/16 04:16:32;;;;;;;4.70;3.75;;;;;;;12.78;79.09;100024.53;10406566;28;19925;-78
2022/10/16 04:21:35;;;;;;;6.20;4.00;;;;;;;12.61;79.82;100014.50;10409110;28;20115;-78
2022/10/16 04:26:37;;;;;;;;;;;;;;;12.80;79.13;100021.69;10406949;28;21223;-78
2022/10/16 04:31:42;;;;;;;7.90;3.65;;;;;;;12.66;79.81;100039.16;10380913;28;19964;-78
2022/10/16 04:36:45;;;;;;;6.07;3.83;;;;;;;12.75;79.27;100041.00;10411576;28;20122;-78
2022/10/16 04:41:47;;;;;;;5.35;3.55;;;;;;;12.87;78.63;100052.44;10387858;28;20050;-78
2022/10/16 04:46:52;;;;;;;3.03;2.70;;;;;;;12.94;78.39;100058.94;10406715;28;20672;-78
2022/10/16 04:51:55;;;;;;;4.25;3.10;;;;;;;12.95;78.33;100060.66;10406933;28;20076;-78
2022/10/16 04:56:58;;;;;;;5.10;3.40;;;;;;;13.00;77.91;100073.66;10409783;28;20071;-78
2022/10/16 05:02:02;;;;;;;6.20;2.97;;;;;;;13.10;77.62;100061.00;10404814;28;20055;-78
2022/10/16 05:07:05;;;;;;;5.90;2.55;;;;;;;12.94;78.08;100075.09;10385955;28;20525;-78
2022/10/16 05:12:08;;;;;;;;;;;;;;;13.16;77.47;100073.88;10385306;28;20184;-78
2022/10/16 05:17:12;;;;;;;2.70;2.47;;;;;;;13.21;76.91;100071.59;10384154;28;19948;-77
2022/10/16 05:22:14;;;;;;;3.90;2.20;;;;;;;13.17;77.03;100083.69;10413472;28;20052;-78
2022/10/16 05:27:19;;;;;;;;;;;;;;;13.11;77.19;100078.03;10405524;28;20084;-78
2022/10/16 05:32:23;;;;;;;3.40;2.58;;;;;;;13.02;77.31;100095.94;10437352;28;19992;-78
2022/10/16 05:37:26;;;;;;;5.40;2.72;;;;;;;12.84;77.90;100098.56;10408343;28;20450;-78
2022/10/16 05:42:29;;;;;;;5.35;2.78;;;;;;;12.89;77.58;100082.81;10384500;28;21142;-78
2022/10/16 05:47:33;;;;;;;3.05;2.22;;;;;;;12.91;77.26;100088.03;10396780;28;20048;-78
2022/10/16 05:52:36;;;;;;;2.60;2.40;;;;;;;12.90;77.20;100103.38;10405569;28;20049;-78
2022/10/16 05:57:39;;;;;;;;;;;;;;;12.72;77.75;100121.28;10402730;28;20057;-78
2022/10/16 06:02:43;;;;;;;4.13;2.17;;;;;;;12.83;77.18;100132.75;10383830;28;19925;-78
2022/10/16 06:07:46;;;;;;;3.97;1.77;;;;;;;12.88;76.87;100143.09;10386015;28;20068;-78
2022/10/16 06:12:49;;;;;;;;;;;;;;;12.96;76.37;100140.53;10392617;28;20052;-78
2022/10/16 06:17:53;;;;;;;3.90;1.60;;;;;;;12.93;76.60;100135.41;10398828;28;20008;-78
2022/10/16 06:22:56;;;;;;;1.73;1.60;;;;;;;12.97;76.02;100146.75;10404076;28;21182;-79
2022/10/16 06:27:59;;;;;;;4.35;1.52;;;;;;;13.08;75.87;100156.53;10414214;28;20133;-78
2022/10/16 06:33:03;;;;;;;3.40;1.60;;;;;;;13.26;75.25;100157.47;10415653;28;20055;-78
2022/10/16 06:38:06;;;;;;;7.50;1.63;;;;;;;13.44;73.94;100166.53;10422056;28;20147;-78
2022/10/16 06:43:08;;;;;;;;;;;;;;;13.64;72.98;100167.28;10408246;28;20049;-78
2022/10/16 06:48:13;;;;;;;1.40;1.08;;;;;;;13.59;73.28;100168.72;10406818;28;19975;-78
2022/10/16 06:53:15;;;;;;;1.70;1.05;;;;;;;13.73;72.67;100175.47;10431130;28;20044;-78
2022/10/16 06:58:19;;;;;;;1.60;1.10;;;;;;;13.75;72.69;100185.13;10430445;28;20052;-78
2022/10/16 07:03:28;;;;;;;3.42;1.15;;;;;;;13.66;73.29;100196.84;10401177;28;20769;-78
2022/10/16 07:08:33;;;;;;;1.15;1.10;;;;;;;13.75;73.00;100216.69;10412129;28;20050;-78
2022/10/16 07:13:36;;;;;;;2.00;1.52;;;;;;;14.01;72.20;100214.13;10430941;28;20052;-79
2022/10/16 07:18:43;;;;;;;2.95;1.00;;;;;;;14.34;70.71;100213.50;10448524;28;20069;-78
2022/10/16 07:23:50;;;;;;;2.35;1.10;;;;;;;14.44;71.08;100226.09;10451850;28;20100;-78
2022/10/16 07:28:53;;;;;;;1.90;1.10;;;;;;;14.76;69.81;100234.53;10410949;28;20048;-78
2022/10/16 07:33:59;;;;;;;1.48;1.00;;;;;;;14.88;69.05;100242.41;10397488;28;20076;-78
2022/10/16 07:39:02;;;;;;;1.15;1.00;;;;;;;14.69;70.18;100252.38;10417094;28;20048;-77
2022/10/16 07:44:06;;;;;;;3.08;1.20;;;;;;;15.05;69.21;100255.03;10415240;28;20426;-78
2022/10/16 07:49:10;;;;;;;2.55;1.08;;;;;;;14.75;69.55;100291.47;10392315;28;20053;-78
2022/10/16 07:54:13;;;;;;;1.55;0.80;;;;;;;14.98;68.68;100281.03;10388265;28;20049;-77
2022/10/16 07:59:16;;;;;;;0.90;0.90;;;;;;;14.34;70.73;100297.25;10398468;28;20053;-80
2022/10/16 08:04:21;;;;;;;5.78;0.95;;;;;;;14.52;71.40;100286.50;10408379;28;20055;-78
2022/10/16 08:09:23;;;;;;;1.65;0.60;;;;;;;14.55;70.61;100310.50;10431781;28;20049;-78
2022/10/16 08:14:26;;;;;;;3.20;1.30;;;;;;;15.42;68.43;100297.31;10419269;28;20052;-78
2022/10/16 08:19:34;;;;;;;2.78;1.13;;;;;;;15.18;68.64;100297.94;10414707;28;20059;-79
2022/10/16 08:24:37;;;;;;;2.20;1.20;;;;;;;15.27;68.76;100305.94;10375998;28;20388;-79
2022/10/16 08:29:39;;;;;;;1.50;1.40;;;;;;;15.74;66.95;100326.44;10393970;28;20056;-79
2022/10/16 08:34:43;;;;;;;1.58;1.05;;;;;;;15.51;67.45;100328.00;10417601;28;20053;-79
2022/10/16 08:39:46;;;;;;;1.58;1.20;;;;;;;15.95;66.47;100328.78;10415295;28;20052;-79
2022/10/16 08:45:24;;;;;;;1.27;0.95;;;;;;;15.65;67.47;100339.09;10407669;28;20060;-79
2022/10/16 08:50:30;;;;;;;3.83;1.20;;;;;;;16.09;66.03;100338.19;10421698;28;20059;-78
2022/10/16 08:55:39;;;;;;;4.22;1.10;;;;;;;16.39;64.88;100342.25;10412699;28;20059;-77
2022/10/16 09:00:44;;;;;;;1.35;1.05;;;;;;;15.67;67.28;100357.91;10413724;28;20057;-79
2022/10/16 09:06:01;;;;;;;1.50;0.82;;;;;;;15.37;67.08;100343.78;10415742;28;20048;-78
2022/10/16 09:11:11;;;;;;;1.95;1.00;;;;;;;15.96;65.96;100384.66;10414618;28;20070;-78
2022/10/16 09:16:21;;;;;;;2.42;0.90;;;;;;;15.94;66.55;100362.31;10397912;28;20107;-78
2022/10/16 09:21:29;;;;;;;3.67;1.20;;;;;;;16.43;64.76;100378.88;10426771;28;20049;-79
2022/10/16 09:26:32;;;;;;;6.30;1.40;;;;;;;16.49;63.58;100380.94;10404688;28;20073;-79
2022/10/16 09:31:37;;;;;;;1.70;0.68;;;;;;;15.68;65.32;100395.63;10411570;28;20514;-78
2022/10/16 09:36:45;;;;;;;2.20;0.70;;;;;;;16.35;63.19;100389.69;10418699;28;21207;-77
2022/10/16 09:41:48;;;;;;;2.13;0.73;;;;;;;16.71;62.06;100373.22;10418825;28;20049;-78
2022/10/16 09:47:02;;;;;;;2.63;0.75;;;;;;;17.00;62.11;100389.03;10415664;28;20142;-79
2022/10/16 09:52:12;;;;;;;3.63;0.85;;;;;;;17.11;60.96;100394.16;10367547;28;20149;-79
2022/10/16 09:57:15;;;;;;;2.85;0.80;;;;;;;16.85;60.35;100391.56;10411787;28;20725;-79
2022/10/16 10:02:20;;;;;;;2.35;1.05;;;;;;;17.17;59.14;100406.25;10438608;28;20140;-78
2022/10/16 10:07:28;;;;;;;2.15;0.63;;;;;;;17.62;57.91;100405.78;10431671;28;20100;-79
2022/10/16 10:12:35;;;;;;;3.00;0.60;;;;;;;18.06;56.40;100426.31;10429401;28;20060;-77
2022/10/16 10:17:47;;;;;;;6.00;0.80;;;;;;;17.76;56.87;100422.41;10430184;28;20041;-77
2022/10/16 10:22:51;;;;;;;1.13;0.40;;;;;;;17.89;56.52;100415.44;10458974;28;20045;-77
2022/10/16 10:28:10;;;;;;;2.47;0.60;;;;;;;17.89;57.00;100428.19;10418480;28;20057;-78
2022/10/16 10:33:25;;;;;;;4.97;1.33;;;;;;;17.60;57.51;100432.25;10403831;28;20045;-79
2022/10/16 10:38:39;;;;;;;4.05;0.80;;;;;;;17.18;57.07;100429.66;10412280;28;20033;-77
2022/10/16 10:43:57;;;;;;;2.22;0.70;;;;;;;17.64;55.55;100420.03;10424571;28;20049;-78
2022/10/16 10:49:15;;;;;;;3.20;0.60;;;;;;;18.22;54.10;100420.84;10430224;28;20118;-79
2022/10/16 10:54:28;;;;;;;3.35;0.80;;;;;;;17.98;53.72;100429.91;10431240;28;20498;-79
2022/10/16 10:59:44;;;;;;;2.38;0.77;;;;;;;16.54;58.08;100427.38;10412704;28;20053;-79
2022/10/16 11:04:58;;;;;;;2.15;0.60;;;;;;;19.20;52.59;100427.78;10419912;28;20049;-79
2022/10/16 11:10:13;;;;;;;1.15;0.40;;;;;;;19.33;52.12;100429.91;10409015;28;20055;-78
2022/10/16 11:15:20;;;;;;;1.58;0.63;;;;;;;19.43;52.04;100442.25;10408810;28;20041;-79
2022/10/16 11:20:26;;;;;;;2.15;0.70;;;;;;;18.71;53.35;100439.75;10413790;28;20072;-79
2022/10/16 11:25:32;;;;;;;2.47;0.73;;;;;;;17.42;55.60;100446.00;10431716;28;20040;-79
2022/10/16 11:30:44;;;;;;;3.03;0.80;;;;;;;17.02;56.37;100449.44;10428217;28;20080;-79
2022/10/16 11:35:52;;;;;;;0.82;0.60;;;;;;;18.79;51.76;100447.06;10418818;28;20048;-78
2022/10/16 11:41:04;;;;;;;0.70;0.50;;;;;;;18.74;52.28;100454.88;10404355;28;20429;-78
2022/10/16 11:46:12;;;;;;;6.53;1.25;;;;;;;17.32;54.21;100455.31;10404268;28;20048;-78
2022/10/16 11:51:22;;;;;;;2.90;0.85;;;;;;;17.34;54.33;100445.97;10414168;28;20057;-78
2022/10/16 11:56:27;;;;;;;5.63;1.40;;;;;;;18.29;53.00;100459.94;10419386;28;20091;-79
2022/10/16 12:01:39;;;;;;;1.35;0.55;;;;;;;19.47;49.62;100459.06;10415925;28;20108;-79
2022/10/16 12:06:45;;;;;;;1.13;0.40;;;;;;;19.88;49.39;100454.22;10415117;28;20052;-79
2022/10/16 12:11:49;;;;;;;2.35;0.80;;;;;;;20.79;48.17;100456.88;10399948;28;20049;-78
2022/10/16 12:16:54;;;;;;;3.35;0.40;;;;;;;19.63;48.33;100450.81;10401207;28;20052;-79
2022/10/16 12:21:59;;;;;;;7.00;0.95;;;;;;;20.17;47.22;100462.63;10382145;28;20053;-79
2022/10/16 12:27:05;;;;;;;2.90;0.63;;;;;;;20.95;46.67;100472.19;10394120;28;20509;-78
2022/10/16 12:32:27;;;;;;;3.47;0.50;;;;;;;20.54;46.96;100481.72;10394133;28;20055;-78
2022/10/16 12:37:50;;;;;;;1.48;0.43;;;;;;;18.64;51.02;100493.16;10420488;28;20055;-79
2022/10/16 12:42:54;;;;;;;2.38;0.98;;;;;;;18.05;52.98;100487.16;10422328;28;20095;-78
2022/10/16 12:47:58;;;;;;;2.30;1.05;;;;;;;18.30;52.32;100485.25;10400506;28;20049;-78
2022/10/16 12:53:02;;;;;;;2.00;0.82;;;;;;;19.54;50.36;100487.31;10414414;28;20110;-78
2022/10/16 12:58:20;;;;;;;1.90;0.77;;;;;;;19.46;49.18;100503.69;10414595;28;20049;-79
2022/10/16 13:03:49;;;;;;;1.73;0.80;;;;;;;19.65;48.81;100492.38;10404351;28;20056;-78
2022/10/16 13:09:27;;;;;;;2.83;0.80;;;;;;;21.16;44.76;100507.78;10438130;28;20108;-78
2022/10/16 13:14:55;;;;;;;1.85;0.88;;;;;;;21.72;44.30;100507.16;10394050;28;20061;-79
2022/10/16 13:20:08;;;;;;;1.92;0.73;;;;;;;21.57;43.71;100515.41;10381631;28;20052;-78
2022/10/16 13:25:23;;;;;;;3.40;0.90;;;;;;;21.65;44.22;100503.50;10379704;28;20046;-78
2022/10/16 13:30:29;;;;;;;1.67;0.88;;;;;;;22.07;44.06;100521.81;10404747;28;21178;-79
2022/10/16 13:35:34;;;;;;;1.50;0.75;;;;;;;22.68;42.57;100517.66;10412395;28;20040;-78
2022/10/16 13:40:37;;;;;;;2.33;0.80;;;;;;;20.49;46.85;100521.50;10399379;28;20053;-78
2022/10/16 13:45:41;;;;;;;1.50;0.73;;;;;;;21.45;44.96;100526.00;10413248;28;21239;-78
2022/10/16 13:50:44;;;;;;;2.30;0.98;;;;;;;21.13;45.52;100540.94;10407010;28;20056;-78
2022/10/16 13:55:47;;;;;;;2.58;1.30;;;;;;;20.84;46.26;100535.44;10421901;28;20057;-79
2022/10/16 14:00:57;;;;;;;2.17;0.80;;;;;;;21.97;44.35;100537.72;10425932;28;20048;-78
2022/10/16 14:06:02;;;;;;;1.63;0.85;;;;;;;20.53;45.99;100534.56;10415358;28;20052;-78
2022/10/16 14:11:05;;;;;;;1.92;0.70;;;;;;;20.62;46.30;100537.22;10414010;28;20037;-78
2022/10/16 14:16:11;;;;;;;2.25;0.75;;;;;;;20.69;45.76;100552.66;10408604;28;20069;-79
2022/10/16 14:21:16;;;;;;;2.50;0.82;;;;;;;20.09;46.99;100546.19;10411598;28;21239;-78
2022/10/16 14:26:22;;;;;;;1.50;0.75;;;;;;;20.24;47.44;100551.72;10387272;28;20050;-79
2022/10/16 14:31:30;;;;;;;2.00;0.70;;;;;;;21.00;46.35;100549.75;10402554;28;20115;-78
2022/10/16 14:36:34;;;;;;;1.33;0.70;;;;;;;20.85;46.16;100546.19;10399194;28;20045;-79
2022/10/16 14:41:44;;;;;;;1.30;0.75;;;;;;;20.52;46.56;100548.44;10405417;28;20140;-79
2022/10/16 14:46:49;;;;;;;1.17;0.73;;;;;;;20.89;45.76;100547.50;10411864;28;20146;-79
2022/10/16 14:51:52;;;;;;;2.35;1.33;;;;;;;20.86;45.17;100545.16;10391974;28;20049;-79
2022/10/16 14:56:57;;;;;;;0.77;0.68;;;;;;;20.80;45.71;100551.38;10391625;28;20054;-78
2022/10/16 15:02:22;;;;;;;3.15;0.65;;;;;;;20.22;47.08;100553.78;10388093;28;20049;-77
2022/10/16 15:07:25;;;;;;;1.30;0.90;;;;;;;19.85;48.12;100557.28;10431638;28;20045;-76
2022/10/16 15:12:28;;;;;;;1.05;0.68;;;;;;;20.03;47.91;100546.94;10415379;28;20053;-78
2022/10/16 15:17:32;;;;;;;1.45;0.55;;;;;;;20.74;46.40;100546.66;10385396;28;20076;-79
2022/10/16 15:22:35;;;;;;;2.17;0.90;;;;;;;21.08;46.08;100561.66;10400560;28;20050;-78
2022/10/16 15:27:40;;;;;;;2.25;1.02;;;;;;;20.78;47.81;100556.16;10413990;28;20104;-79
2022/10/16 15:32:44;;;;;;;1.48;0.98;;;;;;;20.26;47.92;100576.06;10408267;28;20045;-78
2022/10/16 15:37:47;;;;;;;4.57;1.40;;;;;;;19.58;48.77;100578.59;10407925;28;20061;-77
2022/10/16 15:42:51;;;;;;;1.17;0.80;;;;;;;19.12;50.22;100586.59;10420855;28;20057;-77
2022/10/16 15:47:55;;;;;;;2.53;1.50;;;;;;;18.78;51.80;100575.97;10402992;28;20048;-78
2022/10/16 15:52:57;;;;;;;11.77;1.67;;;;;;;18.39;53.79;100571.22;10415340;28;20196;-78
2022/10/16 15:58:00;;;;;;;14.70;2.40;;;;;;;17.87;55.66;100574.22;10418835;28;20065;-78
2022/10/16 16:03:05;;;;;;;23.85;2.83;;;;;;;17.86;56.26;100565.22;10431033;28;20045;-77
2022/10/16 16:08:08;;;;;;;15.65;2.35;;;;;;;17.83;57.01;100560.13;10429794;28;20105;-78
2022/10/16 16:13:11;;;;;;;14.48;4.65;;;;;;;17.65;57.63;100584.72;10424437;28;20049;-79
2022/10/16 16:18:15;;;;;;;13.35;7.07;;;;;;;17.60;57.34;100595.22;10430423;28;20116;-78
2022/10/16 16:23:18;;;;;;;4.68;3.42;;;;;;;17.57;57.80;100600.97;10420783;28;20422;-78
2022/10/16 16:28:21;;;;;;;11.50;5.05;;;;;;;17.46;58.87;100596.69;10406889;28;20383;-77
2022/10/16 16:33:26;;;;;;;12.70;7.07;;;;;;;17.30;58.37;100588.50;10407290;28;20049;-78
2022/10/16 16:38:31;;;;;;;10.35;7.13;;;;;;;17.34;58.37;100610.75;10410809;28;20049;-78
2022/10/16 16:43:33;;;;;;;8.60;7.85;;;;;;;17.29;58.73;100605.81;10396068;28;20434;-78
2022/10/16 16:48:39;;;;;;;9.75;7.82;;;;;;;17.23;58.95;100618.16;10432332;28;20056;-77
2022/10/16 16:53:42;;;;;;;10.40;5.50;;;;;;;17.26;59.23;100611.56;10442409;28;20090;-77
2022/10/16 16:58:46;;;;;;;7.03;3.78;;;;;;;17.17;59.40;100610.69;10442920;28;20072;-78
2022/10/16 17:03:52;;;;;;;3.85;2.33;;;;;;;17.13;59.08;100630.13;10436663;28;20073;-76
2022/10/16 17:08:55;;;;;;;7.65;3.65;;;;;;;17.12;58.80;100626.56;10396877;28;20055;-76
2022/10/16 17:14:00;;;;;;;6.13;2.65;;;;;;;17.05;58.98;100620.06;10427062;28;20061;-78
2022/10/16 17:19:07;;;;;;;4.32;2.40;;;;;;;16.97;59.17;100623.56;10406460;28;20051;-77
2022/10/16 17:24:10;;;;;;;4.40;2.20;;;;;;;16.92;59.30;100634.09;10388424;28;20053;-77
2022/10/16 17:29:13;;;;;;;5.65;3.22;;;;;;;16.87;59.31;100641.84;10401744;28;20049;-77
2022/10/16 17:34:18;;;;;;;4.95;3.17;;;;;;;16.67;60.06;100649.31;10405049;28;20053;-78
2022/10/16 17:39:22;;;;;;;4.63;2.85;;;;;;;16.61;60.32;100663.50;10395013;28;20176;-77
2022/10/16 17:44:25;;;;;;;6.15;2.97;;;;;;;16.57;59.59;100670.28;10441836;28;20057;-76
2022/10/16 17:49:29;;;;;;;4.60;3.15;;;;;;;16.51;59.75;100677.16;10452609;28;20109;-76
2022/10/16 17:54:32;;;;;;;5.03;4.22;;;;;;;16.46;59.88;100665.94;10458104;28;20045;-76
2022/10/16 17:59:35;;;;;;;5.95;2.88;;;;;;;16.25;60.96;100641.81;10450879;28;20054;-76
2022/10/16 18:04:39;;;;;;;4.25;2.72;;;;;;;16.07;61.47;100657.22;10446964;28;20044;-76
2022/10/16 18:09:42;;;;;;;4.10;2.95;;;;;;;16.04;61.83;100677.34;10449597;28;20930;-75
2022/10/16 18:15:07;;;;;;;3.33;2.42;;;;;;;16.09;61.76;100690.44;10437258;28;20052;-77
2022/10/16 18:20:12;;;;;;;4.70;2.65;;;;;;;16.09;61.37;100696.69;10428606;28;20041;-78
2022/10/16 18:25:15;;;;;;;4.18;2.50;;;;;;;16.13;60.87;100687.28;10378439;28;20727;-77
2022/10/16 18:30:18;;;;;;;4.10;2.40;;;;;;;16.17;60.90;100704.06;10367278;28;20107;-78
2022/10/16 18:35:22;;;;;;;4.40;2.88;;;;;;;16.16;61.23;100705.09;10393216;28;20038;-78
2022/10/16 18:40:25;;;;;;;5.28;3.00;;;;;;;16.09;61.72;100714.81;10385755;28;20042;-78
2022/10/16 18:45:28;;;;;;;4.15;2.72;;;;;;;16.02;61.67;100709.16;10387148;28;20053;-78
2022/10/16 18:50:33;;;;;;;4.50;3.15;;;;;;;15.89;62.42;100711.38;10368366;28;20076;-78
2022/10/16 18:55:36;;;;;;;4.05;2.78;;;;;;;15.78;62.54;100701.59;10352543;28;20054;-78
2022/10/16 19:00:39;;;;;;;5.22;3.17;;;;;;;15.58;63.52;100694.59;10366900;28;20072;-78
2022/10/16 19:05:45;;;;;;;5.80;3.70;;;;;;;15.40;64.29;100686.38;10372462;28;20057;-77
2022/10/16 19:10:48;;;;;;;5.45;3.78;;;;;;;15.42;64.13;100696.06;10361739;28;20046;-77
2022/10/16 19:15:50;;;;;;;6.00;3.47;;;;;;;15.40;64.21;100686.38;10355574;28;20073;-76
2022/10/16 19:21:03;;;;;;;4.35;3.40;;;;;;;15.39;64.28;100687.41;10391858;28;20049;-78
2022/10/16 19:26:14;;;;;;;4.47;3.53;;;;;;;15.36;64.58;100685.84;10400790;28;20050;-78
2022/10/16 19:31:19;;;;;;;6.95;3.63;;;;;;;15.34;64.81;100681.53;10405879;28;20049;-77
2022/10/16 19:36:26;;;;;;;5.55;3.00;;;;;;;15.29;65.16;100676.56;10374211;28;20045;-79
2022/10/16 19:41:30;;;;;;;4.85;2.70;;;;;;;15.28;65.02;100682.97;10395075;28;20105;-78
2022/10/16 19:46:34;;;;;;;5.95;3.28;;;;;;;15.32;65.03;100686.25;10399379;28;20053;-77
2022/10/16 19:51:38;;;;;;;4.68;2.55;;;;;;;15.24;65.28;100695.94;10393762;28;20112;-77
2022/10/16 19:56:42;;;;;;;3.85;2.50;;;;;;;15.30;65.26;100699.91;10379524;28;20064;-79
2022/10/16 20:01:46;;;;;;;3.58;2.60;;;;;;;15.32;65.20;100703.31;10368278;28;20120;-78
2022/10/16 20:06:50;;;;;;;8.27;3.05;;;;;;;15.36;65.20;100704.78;10348233;28;20494;-77
2022/10/16 20:11:53;;;;;;;4.57;3.40;;;;;;;15.32;65.03;100694.34;10364259;28;20459;-77
2022/10/16 20:16:56;;;;;;;5.22;2.95;;;;;;;15.30;65.14;100709.88;10373419;28;20053;-78
2022/10/16 20:22:00;;;;;;;4.53;3.58;;;;;;;15.30;65.05;100710.72;10367994;28;20124;-77
2022/10/16 20:27:03;;;;;;;7.20;2.50;;;;;;;15.32;65.45;100718.72;10356416;28;20159;-78
2022/10/16 20:32:06;;;;;;;5.65;2.95;;;;;;;15.27;65.47;100736.22;10375025;28;20095;-78
2022/10/16 20:37:10;;;;;;;4.07;2.85;;;;;;;15.26;65.34;100752.63;10386975;28;20041;-77
2022/10/16 20:42:13;;;;;;;5.60;3.00;;;;;;;15.21;65.48;100763.88;10363174;28;20076;-79
2022/10/16 20:47:16;;;;;;;8.27;3.80;;;;;;;15.35;65.39;100772.59;10385069;28;20079;-76
2022/10/16 20:52:20;;;;;;;5.07;3.20;;;;;;;15.25;69.88;100778.00;10359601;28;20068;-76
2022/10/16 20:57:23;;;;;;;10.05;3.63;;;;;;;14.44;76.77;100758.50;10362412;28;20053;-76
2022/10/16 21:02:27;;;;;;;5.40;2.95;;;;;;;14.13;80.93;100742.38;10356746;28;21267;-76
2022/10/16 21:07:31;;;;;;;6.40;3.05;;;;;;;13.94;83.70;100757.50;10368602;28;20150;-76
2022/10/16 21:12:34;;;;;;;5.80;3.45;;;;;;;13.82;84.34;100753.22;10356566;28;20050;-76
2022/10/16 21:17:36;;;;;;;6.57;3.42;;;;;;;13.82;86.01;100758.63;10364278;28;20664;-76
2022/10/16 21:22:41;;;;;;;6.28;3.80;;;;;;;13.84;85.93;100766.56;10374964;28;21346;-76
2022/10/16 21:27:44;;;;;;;8.30;3.75;;;;;;;13.80;86.04;100759.75;10508285;23;20127;-77
2022/10/16 21:32:47;;;;;;;9.65;4.32;;;;;;;13.86;86.83;100751.09;10501373;28;20055;-78
2022/10/16 21:37:51;;;;;;;8.13;4.32;;;;;;;13.86;86.35;100748.41;10506280;28;20045;-76
2022/10/16 21:42:54;;;;;;;5.80;4.65;;;;;;;13.98;86.78;100755.38;10510885;28;20044;-78
2022/10/16 21:47:57;;;;;;;7.15;4.13;;;;;;;14.03;87.35;100757.69;10496204;28;20261;-78
2022/10/16 21:53:01;;;;;;;6.53;4.40;;;;;;;14.00;86.82;100752.56;10504188;28;20037;-77
2022/10/16 21:58:04;;;;;;;8.43;3.33;;;;;;;14.03;87.41;100757.69;10510884;28;20048;-78
2022/10/16 22:03:07;;;;;;;3.80;3.30;;;;;;;14.08;87.54;100747.31;10478299;28;20037;-77
2022/10/16 22:08:11;;;;;;;5.43;4.20;;;;;;;14.08;87.43;100758.13;10487893;28;20103;-78
2022/10/16 22:13:13;;;;;;;5.75;3.55;;;;;;;14.03;87.19;100745.03;10486204;28;20048;-77
2022/10/16 22:18:16;;;;;;;6.40;3.63;;;;;;;13.97;86.43;100734.78;10498866;28;20044;-77
2022/10/16 22:23:21;;;;;;;4.55;3.00;;;;;;;13.97;86.86;100728.53;10512880;28;20076;-77
2022/10/16 22:28:24;;;;;;;3.55;2.53;;;;;;;13.93;86.58;100717.13;10486844;28;20075;-77
2022/10/16 22:33:26;;;;;;;6.13;3.03;;;;;;;13.82;86.86;100720.81;10486409;28;20045;-76
2022/10/16 22:38:31;;;;;;;4.15;2.88;;;;;;;13.72;86.58;100714.53;10473211;28;20095;-77
2022/10/16 22:43:36;;;;;;;4.75;2.97;;;;;;;13.67;86.66;100720.34;10491525;28;20476;-77
2022/10/16 22:48:39;;;;;;;6.22;3.65;;;;;;;13.63;86.44;100718.03;10502157;28;20045;-78
2022/10/16 22:53:43;;;;;;;4.97;3.13;;;;;;;13.60;86.71;100724.59;10496466;28;20387;-77
2022/10/16 22:58:46;;;;;;;5.45;3.72;;;;;;;13.53;86.21;100711.75;10492196;28;20041;-77
2022/10/16 23:03:50;;;;;;;4.50;3.90;;;;;;;13.54;86.93;100719.69;10496967;28;20075;-78
2022/10/16 23:08:55;;;;;;;5.90;4.38;;;;;;;13.57;86.88;100718.59;10500343;28;20048;-78
2022/10/16 23:13:58;;;;;;;6.35;4.70;;;;;;;13.60;86.56;100712.91;10498143;28;20060;-79
2022/10/16 23:19:01;;;;;;;6.35;4.30;;;;;;;13.60;86.91;100721.00;10511962;28;20040;-78
2022/10/16 23:24:06;;;;;;;6.30;4.55;;;;;;;13.63;87.29;100718.91;10509641;28;20062;-77
2022/10/16 23:29:09;;;;;;;7.15;5.57;;;;;;;13.64;86.87;100704.41;10511760;28;20056;-77